sensor_id;sensor_type;location;lat;lon;timestamp;P1;durP1;ratioP1;P2;durP2;ratioP2
11000;SDS011;5553;48.506;8.870;2023-06-22T07:13:31;10.50;;;6.77;;
11000;SDS011;5553;48.506;8.870;2023-06-22T07:16:00;10.23;;;6.80;;
11000;SDS011;5553;48.506;8.870;2023-06-22T07:18:29;9.80;;;6.67;;
11000;SDS011;5553;48.506;8.870;2023-06-22T07:20:59;7.93;;;7.13;;
11000;SDS011;5553;48.506;8.870;2023-06-22T07:23:28;8.77;;;6.90;;
11000;SDS011;5553;48.506;8.870;2023-06-22T07:25:57;10.30;;;6.67;;
11000;SDS011;5553;48.506;8.870;2023-06-22T07:28:29;10.73;;;7.30;;
11000;SDS011;5553;48.506;8.870;2023-06-22T07:31:02;8.50;;;6.73;;
11000;SDS011;5553;48.506;8.870;2023-06-22T07:33:31;8.77;;;6.60;;
11000;SDS011;5553;48.506;8.870;2023-06-22T07:35:59;10.60;;;6.73;;
11000;SDS011;5553;48.506;8.870;2023-06-22T07:38:32;9.97;;;7.10;;
11000;SDS011;5553;48.506;8.870;2023-06-22T07:41:01;8.27;;;7.00;;
11000;SDS011;5553;48.506;8.870;2023-06-22T07:43:34;8.53;;;6.67;;
11000;SDS011;5553;48.506;8.870;2023-06-22T07:46:02;10.20;;;7.50;;
11000;SDS011;5553;48.506;8.870;2023-06-22T07:48:33;8.10;;;7.10;;
11000;SDS011;5553;48.506;8.870;2023-06-22T07:53:35;8.93;;;7.10;;
11000;SDS011;5553;48.506;8.870;2023-06-22T07:56:03;13.97;;;8.60;;
11000;SDS011;5553;48.506;8.870;2023-06-22T07:58:35;9.73;;;7.37;;
11000;SDS011;5553;48.506;8.870;2023-06-22T08:01:04;12.97;;;8.03;;
11000;SDS011;5553;48.506;8.870;2023-06-22T08:03:33;10.33;;;7.43;;
11000;SDS011;5553;48.506;8.870;2023-06-22T08:06:02;7.33;;;6.60;;
11000;SDS011;5553;48.506;8.870;2023-06-22T08:08:32;13.00;;;8.13;;
11000;SDS011;5553;48.506;8.870;2023-06-22T08:11:00;12.97;;;9.10;;
11000;SDS011;5553;48.506;8.870;2023-06-22T08:13:28;11.27;;;7.20;;
11000;SDS011;5553;48.506;8.870;2023-06-22T08:15:59;12.43;;;8.57;;
11000;SDS011;5553;48.506;8.870;2023-06-22T08:18:28;14.60;;;8.03;;
11000;SDS011;5553;48.506;8.870;2023-06-22T08:20:56;11.53;;;8.20;;
11000;SDS011;5553;48.506;8.870;2023-06-22T08:23:24;19.17;;;7.43;;
11000;SDS011;5553;48.506;8.870;2023-06-22T08:25:54;11.53;;;8.10;;
11000;SDS011;5553;48.506;8.870;2023-06-22T08:28:22;9.63;;;8.13;;
11000;SDS011;5553;48.506;8.870;2023-06-22T08:30:50;12.00;;;7.50;;
11000;SDS011;5553;48.506;8.870;2023-06-22T08:33:25;11.00;;;8.80;;
11000;SDS011;5553;48.506;8.870;2023-06-22T08:35:53;11.23;;;9.73;;
11000;SDS011;5553;48.506;8.870;2023-06-22T08:38:22;10.83;;;7.67;;
11000;SDS011;5553;48.506;8.870;2023-06-22T08:40:50;9.53;;;8.20;;
11000;SDS011;5553;48.506;8.870;2023-06-22T08:43:21;11.80;;;7.83;;
11000;SDS011;5553;48.506;8.870;2023-06-22T08:45:49;14.20;;;8.37;;
11000;SDS011;5553;48.506;8.870;2023-06-22T08:48:18;11.60;;;8.33;;
11000;SDS011;5553;48.506;8.870;2023-06-22T08:50:49;11.00;;;8.10;;
11000;SDS011;5553;48.506;8.870;2023-06-22T08:53:17;8.90;;;8.10;;
11000;SDS011;5553;48.506;8.870;2023-06-22T08:55:46;9.47;;;7.50;;
11000;SDS011;5553;48.506;8.870;2023-06-22T08:58:15;11.47;;;8.37;;
11000;SDS011;5553;48.506;8.870;2023-06-22T09:00:48;12.30;;;9.40;;
11000;SDS011;5553;48.506;8.870;2023-06-22T09:03:16;12.23;;;8.27;;
11000;SDS011;5553;48.506;8.870;2023-06-22T09:05:45;10.00;;;7.70;;
11000;SDS011;5553;48.506;8.870;2023-06-22T09:08:16;10.90;;;6.90;;
11000;SDS011;5553;48.506;8.870;2023-06-22T09:32:57;10.87;;;7.87;;
11000;SDS011;5553;48.506;8.870;2023-06-22T09:35:26;14.00;;;8.50;;
11000;SDS011;5553;48.506;8.870;2023-06-22T09:37:54;12.87;;;8.60;;
11000;SDS011;5553;48.506;8.870;2023-06-22T09:42:53;10.03;;;7.97;;
11000;SDS011;5553;48.506;8.870;2023-06-22T09:52:48;9.17;;;8.23;;
11000;SDS011;5553;48.506;8.870;2023-06-22T10:02:46;9.00;;;7.70;;
11000;SDS011;5553;48.506;8.870;2023-06-22T10:05:15;13.03;;;7.73;;
11000;SDS011;5553;48.506;8.870;2023-06-22T10:07:44;11.37;;;7.33;;
11000;SDS011;5553;48.506;8.870;2023-06-22T10:10:15;10.67;;;8.47;;
11000;SDS011;5553;48.506;8.870;2023-06-22T10:12:45;10.20;;;8.87;;
11000;SDS011;5553;48.506;8.870;2023-06-22T10:37:34;9.90;;;7.30;;
11000;SDS011;5553;48.506;8.870;2023-06-22T10:40:03;9.43;;;7.70;;
11000;SDS011;5553;48.506;8.870;2023-06-22T10:42:34;9.97;;;7.37;;
11000;SDS011;5553;48.506;8.870;2023-06-22T10:45:03;11.90;;;8.17;;
11000;SDS011;5553;48.506;8.870;2023-06-22T10:47:32;8.67;;;7.03;;
11000;SDS011;5553;48.506;8.870;2023-06-22T10:50:00;8.50;;;7.50;;
11000;SDS011;5553;48.506;8.870;2023-06-22T10:52:30;8.70;;;7.37;;
11000;SDS011;5553;48.506;8.870;2023-06-22T10:55:01;9.03;;;7.50;;
11000;SDS011;5553;48.506;8.870;2023-06-22T10:57:29;13.27;;;7.67;;
11000;SDS011;5553;48.506;8.870;2023-06-22T10:59:58;9.90;;;8.30;;
11000;SDS011;5553;48.506;8.870;2023-06-22T11:02:26;12.80;;;8.83;;
11000;SDS011;5553;48.506;8.870;2023-06-22T11:04:54;12.87;;;8.87;;
11000;SDS011;5553;48.506;8.870;2023-06-22T11:07:25;12.20;;;8.73;;
11000;SDS011;5553;48.506;8.870;2023-06-22T11:09:54;13.23;;;7.90;;
11000;SDS011;5553;48.506;8.870;2023-06-22T11:12:24;9.87;;;7.73;;
11000;SDS011;5553;48.506;8.870;2023-06-22T11:14:53;12.77;;;9.53;;
11000;SDS011;5553;48.506;8.870;2023-06-22T11:17:23;8.60;;;7.37;;
11000;SDS011;5553;48.506;8.870;2023-06-22T11:19:51;12.07;;;8.17;;
11000;SDS011;5553;48.506;8.870;2023-06-22T11:22:23;10.20;;;8.20;;
11000;SDS011;5553;48.506;8.870;2023-06-22T11:24:51;11.10;;;8.20;;
11000;SDS011;5553;48.506;8.870;2023-06-22T11:27:20;10.27;;;8.53;;
11000;SDS011;5553;48.506;8.870;2023-06-22T11:32:23;9.90;;;8.90;;
11000;SDS011;5553;48.506;8.870;2023-06-22T11:34:53;12.27;;;8.47;;
11000;SDS011;5553;48.506;8.870;2023-06-22T11:37:21;18.43;;;8.87;;
11000;SDS011;5553;48.506;8.870;2023-06-22T11:47:20;13.43;;;8.40;;
11000;SDS011;5553;48.506;8.870;2023-06-22T11:49:48;8.83;;;7.93;;
11000;SDS011;5553;48.506;8.870;2023-06-22T11:54:45;10.17;;;7.33;;
11000;SDS011;5553;48.506;8.870;2023-06-22T12:04:41;9.67;;;8.33;;
11000;SDS011;5553;48.506;8.870;2023-06-22T12:07:09;11.70;;;8.60;;
11000;SDS011;5553;48.506;8.870;2023-06-22T12:22:00;13.07;;;9.07;;
11000;SDS011;5553;48.506;8.870;2023-06-22T12:24:29;11.30;;;8.70;;
11000;SDS011;5553;48.506;8.870;2023-06-22T12:26:58;10.03;;;8.77;;
11000;SDS011;5553;48.506;8.870;2023-06-22T12:29:28;11.50;;;9.33;;
11000;SDS011;5553;48.506;8.870;2023-06-22T12:31:57;10.33;;;7.63;;
11000;SDS011;5553;48.506;8.870;2023-06-22T12:36:55;13.60;;;9.53;;
11000;SDS011;5553;48.506;8.870;2023-06-22T12:46:53;12.13;;;9.10;;
11000;SDS011;5553;48.506;8.870;2023-06-22T12:54:21;11.27;;;8.53;;
11000;SDS011;5553;48.506;8.870;2023-06-22T12:56:49;11.60;;;8.40;;
11000;SDS011;5553;48.506;8.870;2023-06-22T12:59:18;10.30;;;7.77;;
11000;SDS011;5553;48.506;8.870;2023-06-22T13:01:51;12.87;;;8.43;;
11000;SDS011;5553;48.506;8.870;2023-06-22T13:04:20;14.00;;;9.03;;
11000;SDS011;5553;48.506;8.870;2023-06-22T13:06:48;12.87;;;8.73;;
11000;SDS011;5553;48.506;8.870;2023-06-22T13:14:13;12.13;;;9.30;;
11000;SDS011;5553;48.506;8.870;2023-06-22T13:16:43;10.93;;;8.73;;
11000;SDS011;5553;48.506;8.870;2023-06-22T13:26:38;14.50;;;9.30;;
11000;SDS011;5553;48.506;8.870;2023-06-22T13:29:06;11.67;;;9.53;;
11000;SDS011;5553;48.506;8.870;2023-06-22T13:31:34;13.93;;;9.27;;
11000;SDS011;5553;48.506;8.870;2023-06-22T13:34:08;12.30;;;8.10;;
11000;SDS011;5553;48.506;8.870;2023-06-22T13:39:07;13.70;;;8.43;;
11000;SDS011;5553;48.506;8.870;2023-06-22T13:41:38;10.93;;;8.50;;
11000;SDS011;5553;48.506;8.870;2023-06-22T13:44:08;12.07;;;8.80;;
11000;SDS011;5553;48.506;8.870;2023-06-22T13:46:37;15.23;;;9.50;;
11000;SDS011;5553;48.506;8.870;2023-06-22T13:49:06;14.87;;;9.77;;
11000;SDS011;5553;48.506;8.870;2023-06-22T13:51:36;16.20;;;8.63;;
11000;SDS011;5553;48.506;8.870;2023-06-22T13:54:04;13.13;;;9.13;;
11000;SDS011;5553;48.506;8.870;2023-06-22T13:56:33;13.53;;;9.20;;
11000;SDS011;5553;48.506;8.870;2023-06-22T14:04:02;10.43;;;8.80;;
11000;SDS011;5553;48.506;8.870;2023-06-22T14:06:30;12.47;;;8.47;;
11000;SDS011;5553;48.506;8.870;2023-06-22T14:09:00;12.80;;;7.90;;
11000;SDS011;5553;48.506;8.870;2023-06-22T14:11:28;7.87;;;6.83;;
11000;SDS011;5553;48.506;8.870;2023-06-22T14:16:26;12.60;;;6.03;;
11000;SDS011;5553;48.506;8.870;2023-06-22T14:18:55;18.60;;;6.87;;
11000;SDS011;5553;48.506;8.870;2023-06-22T14:23:54;11.40;;;5.97;;
11000;SDS011;5553;48.506;8.870;2023-06-22T14:26:25;11.07;;;6.10;;
11000;SDS011;5553;48.506;8.870;2023-06-22T14:33:52;16.17;;;6.10;;
11000;SDS011;5553;48.506;8.870;2023-06-22T14:36:21;11.27;;;5.40;;
11000;SDS011;5553;48.506;8.870;2023-06-22T14:43:49;11.30;;;5.20;;
11000;SDS011;5553;48.506;8.870;2023-06-22T14:46:18;12.37;;;5.80;;
11000;SDS011;5553;48.506;8.870;2023-06-22T14:53:43;8.30;;;5.00;;
11000;SDS011;5553;48.506;8.870;2023-06-22T15:06:07;12.90;;;5.30;;
11000;SDS011;5553;48.506;8.870;2023-06-22T15:08:37;7.63;;;4.60;;
11000;SDS011;5553;48.506;8.870;2023-06-22T15:13:34;12.07;;;5.47;;
11000;SDS011;5553;48.506;8.870;2023-06-22T15:16:06;12.33;;;5.33;;
11000;SDS011;5553;48.506;8.870;2023-06-22T15:23:34;8.47;;;5.03;;
11000;SDS011;5553;48.506;8.870;2023-06-22T15:45:52;10.33;;;5.37;;
11000;SDS011;5553;48.506;8.870;2023-06-22T15:53:19;10.80;;;5.03;;
11000;SDS011;5553;48.506;8.870;2023-06-22T16:25:31;8.40;;;4.37;;
11000;SDS011;5553;48.506;8.870;2023-06-22T16:37:53;9.90;;;4.30;;
11000;SDS011;5553;48.506;8.870;2023-06-22T17:07:34;5.37;;;4.03;;
11000;SDS011;5553;48.506;8.870;2023-06-22T17:12:34;13.33;;;3.60;;
11000;SDS011;5553;48.506;8.870;2023-06-22T17:17:40;10.50;;;3.03;;
11000;SDS011;5553;48.506;8.870;2023-06-22T17:22:43;8.17;;;3.53;;
11000;SDS011;5553;48.506;8.870;2023-06-22T17:25:11;5.90;;;3.23;;
11000;SDS011;5553;48.506;8.870;2023-06-22T17:27:41;5.40;;;3.20;;
11000;SDS011;5553;48.506;8.870;2023-06-22T17:32:48;5.37;;;3.27;;
11000;SDS011;5553;48.506;8.870;2023-06-22T17:35:22;7.10;;;3.03;;
11000;SDS011;5553;48.506;8.870;2023-06-22T17:37:51;6.10;;;2.90;;
11000;SDS011;5553;48.506;8.870;2023-06-22T17:42:49;8.23;;;3.43;;
11000;SDS011;5553;48.506;8.870;2023-06-22T17:45:19;10.33;;;3.67;;
11000;SDS011;5553;48.506;8.870;2023-06-22T17:47:52;10.73;;;3.37;;
11000;SDS011;5553;48.506;8.870;2023-06-22T17:52:50;10.33;;;3.33;;
11000;SDS011;5553;48.506;8.870;2023-06-22T17:55:20;9.00;;;4.10;;
11000;SDS011;5553;48.506;8.870;2023-06-22T17:57:53;7.63;;;3.80;;
11000;SDS011;5553;48.506;8.870;2023-06-22T18:02:53;5.93;;;2.73;;
11000;SDS011;5553;48.506;8.870;2023-06-22T18:05:32;7.70;;;3.30;;
11000;SDS011;5553;48.506;8.870;2023-06-22T18:08:02;7.87;;;3.30;;
11000;SDS011;5553;48.506;8.870;2023-06-22T18:12:59;6.83;;;3.17;;
11000;SDS011;5553;48.506;8.870;2023-06-22T18:15:28;10.03;;;3.10;;
11000;SDS011;5553;48.506;8.870;2023-06-22T18:18:00;10.10;;;3.23;;
11000;SDS011;5553;48.506;8.870;2023-06-22T18:22:58;10.23;;;3.90;;
11000;SDS011;5553;48.506;8.870;2023-06-22T18:25:28;7.27;;;3.70;;
11000;SDS011;5553;48.506;8.870;2023-06-22T18:27:59;7.43;;;3.43;;
11000;SDS011;5553;48.506;8.870;2023-06-22T18:32:56;8.33;;;4.00;;
11000;SDS011;5553;48.506;8.870;2023-06-22T18:37:54;4.63;;;3.10;;
11000;SDS011;5553;48.506;8.870;2023-06-22T18:42:56;9.13;;;3.73;;
11000;SDS011;5553;48.506;8.870;2023-06-22T18:45:27;7.80;;;4.17;;
11000;SDS011;5553;48.506;8.870;2023-06-22T18:48:01;7.40;;;3.73;;
11000;SDS011;5553;48.506;8.870;2023-06-22T18:53:04;7.20;;;3.37;;
11000;SDS011;5553;48.506;8.870;2023-06-22T18:55:40;7.10;;;3.83;;
11000;SDS011;5553;48.506;8.870;2023-06-22T18:58:12;8.80;;;3.53;;
11000;SDS011;5553;48.506;8.870;2023-06-22T19:03:22;8.37;;;3.83;;
11000;SDS011;5553;48.506;8.870;2023-06-22T19:08:29;6.87;;;4.10;;
11000;SDS011;5553;48.506;8.870;2023-06-22T19:11:33;11.00;;;3.67;;
11000;SDS011;5553;48.506;8.870;2023-06-22T19:14:01;8.00;;;3.67;;
11000;SDS011;5553;48.506;8.870;2023-06-22T19:16:30;8.13;;;3.70;;
11000;SDS011;5553;48.506;8.870;2023-06-22T19:18:58;8.00;;;4.10;;
11000;SDS011;5553;48.506;8.870;2023-06-22T19:21:39;12.30;;;4.43;;
11000;SDS011;5553;48.506;8.870;2023-06-22T19:24:10;5.80;;;3.97;;
11000;SDS011;5553;48.506;8.870;2023-06-22T19:26:56;8.33;;;4.10;;
11000;SDS011;5553;48.506;8.870;2023-06-22T19:31:52;12.87;;;4.20;;
11000;SDS011;5553;48.506;8.870;2023-06-22T19:34:21;6.23;;;3.80;;
11000;SDS011;5553;48.506;8.870;2023-06-22T19:36:50;9.00;;;3.77;;
11000;SDS011;5553;48.506;8.870;2023-06-22T19:41:49;10.00;;;4.70;;
11000;SDS011;5553;48.506;8.870;2023-06-22T19:44:18;8.90;;;4.50;;
11000;SDS011;5553;48.506;8.870;2023-06-22T19:46:46;6.77;;;4.07;;
11000;SDS011;5553;48.506;8.870;2023-06-22T19:51:43;6.60;;;3.33;;
11000;SDS011;5553;48.506;8.870;2023-06-22T19:54:11;8.93;;;4.37;;
11000;SDS011;5553;48.506;8.870;2023-06-22T19:56:40;7.77;;;3.90;;
11000;SDS011;5553;48.506;8.870;2023-06-22T19:59:11;6.20;;;3.63;;
11000;SDS011;5553;48.506;8.870;2023-06-22T20:01:40;12.00;;;4.97;;
11000;SDS011;5553;48.506;8.870;2023-06-22T20:04:09;7.90;;;4.03;;
11000;SDS011;5553;48.506;8.870;2023-06-22T20:06:38;5.47;;;4.63;;
11000;SDS011;5553;48.506;8.870;2023-06-22T20:09:06;9.13;;;4.63;;
11000;SDS011;5553;48.506;8.870;2023-06-22T20:11:35;7.80;;;4.30;;
11000;SDS011;5553;48.506;8.870;2023-06-22T20:14:05;8.27;;;4.50;;
11000;SDS011;5553;48.506;8.870;2023-06-22T20:16:45;7.93;;;4.40;;
11000;SDS011;5553;48.506;8.870;2023-06-22T20:21:46;7.77;;;4.70;;
11000;SDS011;5553;48.506;8.870;2023-06-22T20:24:15;8.43;;;4.23;;
11000;SDS011;5553;48.506;8.870;2023-06-22T20:26:46;8.47;;;4.83;;
11000;SDS011;5553;48.506;8.870;2023-06-22T20:31:45;5.77;;;3.63;;
11000;SDS011;5553;48.506;8.870;2023-06-22T20:34:14;6.30;;;4.27;;
11000;SDS011;5553;48.506;8.870;2023-06-22T20:36:47;8.23;;;3.80;;
11000;SDS011;5553;48.506;8.870;2023-06-22T20:41:43;9.87;;;4.47;;
11000;SDS011;5553;48.506;8.870;2023-06-22T20:44:11;5.40;;;3.40;;
11000;SDS011;5553;48.506;8.870;2023-06-22T20:46:40;6.97;;;3.80;;
11000;SDS011;5553;48.506;8.870;2023-06-22T20:54:06;6.60;;;3.70;;
11000;SDS011;5553;48.506;8.870;2023-06-22T20:56:35;4.57;;;3.30;;
11000;SDS011;5553;48.506;8.870;2023-06-22T20:59:03;4.00;;;3.10;;
11000;SDS011;5553;48.506;8.870;2023-06-22T21:01:31;4.80;;;3.03;;
11000;SDS011;5553;48.506;8.870;2023-06-22T21:04:00;7.10;;;3.30;;
11000;SDS011;5553;48.506;8.870;2023-06-22T21:06:29;2.50;;;2.30;;
11000;SDS011;5553;48.506;8.870;2023-06-22T21:08:57;3.90;;;2.57;;
11000;SDS011;5553;48.506;8.870;2023-06-22T21:11:28;3.03;;;2.23;;
11000;SDS011;5553;48.506;8.870;2023-06-22T21:13:56;4.60;;;2.07;;
11000;SDS011;5553;48.506;8.870;2023-06-22T21:16:24;1.73;;;1.50;;
11000;SDS011;5553;48.506;8.870;2023-06-22T21:18:54;2.87;;;2.30;;
11000;SDS011;5553;48.506;8.870;2023-06-22T21:23:50;3.23;;;2.07;;
11000;SDS011;5553;48.506;8.870;2023-06-22T21:26:18;4.47;;;2.60;;
11000;SDS011;5553;48.506;8.870;2023-06-22T21:28:49;2.50;;;1.97;;
11000;SDS011;5553;48.506;8.870;2023-06-22T21:31:17;5.67;;;2.80;;
11000;SDS011;5553;48.506;8.870;2023-06-22T21:33:46;2.60;;;2.40;;
11000;SDS011;5553;48.506;8.870;2023-06-22T21:36:14;3.77;;;2.00;;
11000;SDS011;5553;48.506;8.870;2023-06-22T21:38:45;2.57;;;2.30;;
11000;SDS011;5553;48.506;8.870;2023-06-22T21:41:13;4.07;;;2.23;;
11000;SDS011;5553;48.506;8.870;2023-06-22T21:43:43;5.83;;;2.93;;
11000;SDS011;5553;48.506;8.870;2023-06-22T21:46:13;2.83;;;2.00;;
11000;SDS011;5553;48.506;8.870;2023-06-22T21:48:42;4.60;;;2.30;;
11000;SDS011;5553;48.506;8.870;2023-06-22T21:53:39;2.80;;;2.03;;
11000;SDS011;5553;48.506;8.870;2023-06-22T21:56:08;3.00;;;1.97;;
11000;SDS011;5553;48.506;8.870;2023-06-22T21:58:37;2.50;;;2.20;;
11000;SDS011;5553;48.506;8.870;2023-06-22T22:01:05;4.53;;;2.30;;
11000;SDS011;5553;48.506;8.870;2023-06-22T22:03:40;2.67;;;2.47;;
11000;SDS011;5553;48.506;8.870;2023-06-22T22:06:11;2.50;;;1.57;;
11000;SDS011;5553;48.506;8.870;2023-06-22T22:08:45;3.30;;;2.30;;
11000;SDS011;5553;48.506;8.870;2023-06-22T22:13:42;2.70;;;1.90;;
11000;SDS011;5553;48.506;8.870;2023-06-22T22:16:10;2.80;;;1.67;;
11000;SDS011;5553;48.506;8.870;2023-06-22T22:18:43;2.03;;;1.80;;
11000;SDS011;5553;48.506;8.870;2023-06-22T22:21:12;2.60;;;1.77;;
11000;SDS011;5553;48.506;8.870;2023-06-22T22:23:40;4.80;;;2.13;;
11000;SDS011;5553;48.506;8.870;2023-06-22T22:26:09;3.43;;;2.30;;
11000;SDS011;5553;48.506;8.870;2023-06-22T22:28:37;1.80;;;1.53;;
11000;SDS011;5553;48.506;8.870;2023-06-22T22:33:35;2.50;;;2.10;;
11000;SDS011;5553;48.506;8.870;2023-06-22T22:36:06;2.00;;;1.57;;
11000;SDS011;5553;48.506;8.870;2023-06-22T22:38:35;3.70;;;1.97;;
11000;SDS011;5553;48.506;8.870;2023-06-22T22:41:07;2.73;;;1.80;;
11000;SDS011;5553;48.506;8.870;2023-06-22T22:43:37;4.63;;;1.80;;
11000;SDS011;5553;48.506;8.870;2023-06-22T22:46:07;2.83;;;2.10;;
11000;SDS011;5553;48.506;8.870;2023-06-22T22:48:35;2.77;;;2.00;;
11000;SDS011;5553;48.506;8.870;2023-06-22T22:53:34;2.90;;;2.30;;
11000;SDS011;5553;48.506;8.870;2023-06-22T22:56:02;2.90;;;2.07;;
11000;SDS011;5553;48.506;8.870;2023-06-22T22:58:31;2.90;;;2.60;;
11000;SDS011;5553;48.506;8.870;2023-06-22T23:01:02;2.60;;;1.73;;
11000;SDS011;5553;48.506;8.870;2023-06-22T23:03:31;2.90;;;2.20;;
11000;SDS011;5553;48.506;8.870;2023-06-22T23:05:59;4.20;;;2.53;;
11000;SDS011;5553;48.506;8.870;2023-06-22T23:08:30;4.33;;;2.60;;
11000;SDS011;5553;48.506;8.870;2023-06-22T23:13:30;2.27;;;2.07;;
11000;SDS011;5553;48.506;8.870;2023-06-22T23:16:00;2.27;;;2.13;;
11000;SDS011;5553;48.506;8.870;2023-06-22T23:18:28;4.27;;;2.10;;
11000;SDS011;5553;48.506;8.870;2023-06-22T23:23:26;4.00;;;1.70;;
11000;SDS011;5553;48.506;8.870;2023-06-22T23:25:57;2.67;;;1.93;;
11000;SDS011;5553;48.506;8.870;2023-06-22T23:28:25;2.90;;;1.50;;
11000;SDS011;5553;48.506;8.870;2023-06-22T23:33:24;1.77;;;1.50;;
11000;SDS011;5553;48.506;8.870;2023-06-22T23:35:53;1.90;;;1.57;;
11000;SDS011;5553;48.506;8.870;2023-06-22T23:38:24;3.47;;;1.87;;
11000;SDS011;5553;48.506;8.870;2023-06-22T23:40:52;2.60;;;2.10;;
11000;SDS011;5553;48.506;8.870;2023-06-22T23:43:21;2.87;;;2.00;;
11000;SDS011;5553;48.506;8.870;2023-06-22T23:45:50;5.67;;;2.00;;
11000;SDS011;5553;48.506;8.870;2023-06-22T23:48:20;3.93;;;2.60;;
11000;SDS011;5553;48.506;8.870;2023-06-22T23:53:19;3.57;;;1.80;;
11000;SDS011;5553;48.506;8.870;2023-06-22T23:55:47;2.20;;;1.80;;
11000;SDS011;5553;48.506;8.870;2023-06-22T23:58:15;3.40;;;1.90;;
